Time;durP1;ratioP1;P1;durP2;ratioP2;P2;SDS_P1;SDS_P2;PMS_P1;PMS_P2;Temp;Humidity;BMP_temperature;BMP_pressure;BME280_temperature;BME280_humidity;BME280_pressure;Samples;Min_cycle;Max_cycle;Signal;HPM_P1;HPM_P2
2021/09/27 00:01:52;;;;;;;13.38;9.83;;;15.10;99.90;;;;;;1882037;75;21482;-74
2021/09/27 00:04:18;;;;;;;12.07;9.95;;;15.00;99.90;;;;;;1860292;74;21539;-75
2021/09/27 00:06:45;;;;;;;14.30;10.43;;;15.20;99.90;;;;;;1874345;74;21534;-74
2021/09/27 00:09:11;;;;;;;13.10;9.98;;;15.10;99.90;;;;;;1869850;74;21736;-75
2021/09/27 00:11:38;;;;;;;13.25;10.03;;;15.10;99.90;;;;;;1871083;74;21622;-75
2021/09/27 00:14:04;;;;;;;12.25;10.28;;;15.00;99.90;;;;;;1877997;74;21092;-74
2021/09/27 00:16:30;;;;;;;17.15;10.72;;;15.00;99.90;;;;;;1876464;74;21053;-75
2021/09/27 00:18:57;;;;;;;13.60;10.85;;;15.10;99.90;;;;;;1870341;75;21504;-75
2021/09/27 00:21:23;;;;;;;14.83;10.75;;;15.00;99.90;;;;;;1864897;74;21678;-75
2021/09/27 00:23:49;;;;;;;11.97;10.10;;;15.00;99.90;;;;;;1864327;74;21501;-75
2021/09/27 00:26:15;;;;;;;14.45;9.60;;;14.90;99.90;;;;;;1874209;74;21515;-74
2021/09/27 00:28:41;;;;;;;14.47;10.95;;;15.00;99.90;;;;;;1869796;74;21154;-75
2021/09/27 00:31:08;;;;;;;14.85;10.58;;;15.00;99.90;;;;;;1864704;74;21162;-74
2021/09/27 00:33:34;;;;;;;21.05;10.55;;;14.90;99.90;;;;;;1883153;75;21049;-74
2021/09/27 00:36:00;;;;;;;12.25;10.18;;;14.90;99.90;;;;;;1883259;75;21080;-75
2021/09/27 00:38:26;;;;;;;12.80;10.13;;;14.90;99.90;;;;;;1883691;74;21146;-75
2021/09/27 00:40:52;;;;;;;16.75;10.70;;;14.80;99.90;;;;;;1877046;74;21061;-75
2021/09/27 00:43:18;;;;;;;14.95;11.38;;;14.80;99.90;;;;;;1878226;74;21080;-75
2021/09/27 00:45:44;;;;;;;12.30;11.00;;;14.80;99.90;;;;;;1864944;74;21088;-75
2021/09/27 00:48:10;;;;;;;18.00;12.55;;;14.80;99.90;;;;;;1879920;74;21053;-74
2021/09/27 00:50:37;;;;;;;14.73;11.53;;;14.80;99.90;;;;;;1876971;75;21092;-75
2021/09/27 00:53:03;;;;;;;12.98;10.93;;;14.70;99.90;;;;;;1875850;74;21080;-75
2021/09/27 00:55:29;;;;;;;13.13;10.50;;;14.70;99.90;;;;;;1877107;74;21061;-75
2021/09/27 00:57:55;;;;;;;13.80;10.78;;;14.60;99.90;;;;;;1867570;74;21154;-75
2021/09/27 01:00:21;;;;;;;13.88;10.53;;;14.60;99.90;;;;;;1867504;74;21599;-74
2021/09/27 01:02:47;;;;;;;13.70;10.93;;;14.50;99.90;;;;;;1865607;74;21492;-75
2021/09/27 01:05:14;;;;;;;14.90;10.70;;;14.60;99.90;;;;;;1876640;75;21536;-75
2021/09/27 01:07:40;;;;;;;15.85;11.78;;;14.60;99.90;;;;;;1861935;74;21562;-74
2021/09/27 01:10:06;;;;;;;15.03;11.70;;;14.60;99.90;;;;;;1872937;74;21527;-74
2021/09/27 01:12:32;;;;;;;13.58;10.58;;;14.50;99.90;;;;;;1876128;74;21632;-74
2021/09/27 01:14:58;;;;;;;16.15;11.43;;;14.50;99.90;;;;;;1881866;75;21539;-75
2021/09/27 01:17:24;;;;;;;14.20;11.18;;;14.50;99.90;;;;;;1875629;74;21574;-74
2021/09/27 01:19:50;;;;;;;17.85;11.15;;;14.50;99.90;;;;;;1868368;74;21512;-74
2021/09/27 01:22:16;;;;;;;14.78;11.18;;;14.40;99.90;;;;;;1874436;74;21194;-74
2021/09/27 01:24:42;;;;;;;13.83;11.18;;;14.40;99.90;;;;;;1868279;74;21165;-74
2021/09/27 01:27:09;;;;;;;12.85;10.58;;;14.40;99.90;;;;;;1862053;75;21080;-74
2021/09/27 01:29:35;;;;;;;19.82;11.65;;;14.40;99.90;;;;;;1860347;74;21096;-75
2021/09/27 01:32:01;;;;;;;13.90;11.08;;;14.30;99.90;;;;;;1879272;74;21111;-75
2021/09/27 01:34:27;;;;;;;21.75;11.50;;;14.30;99.90;;;;;;1869237;74;21049;-74
2021/09/27 01:36:54;;;;;;;14.10;10.88;;;14.20;99.90;;;;;;1866739;74;21092;-75
2021/09/27 01:39:20;;;;;;;14.45;11.48;;;14.20;99.90;;;;;;1858535;74;21174;-75
2021/09/27 01:41:46;;;;;;;15.40;10.82;;;14.20;99.90;;;;;;1862207;74;21057;-74
2021/09/27 01:44:12;;;;;;;14.78;11.57;;;14.20;99.90;;;;;;1868411;74;21139;-74
2021/09/27 01:46:38;;;;;;;17.73;12.13;;;14.10;99.90;;;;;;1873746;74;21540;-74
2021/09/27 01:49:04;;;;;;;17.42;11.03;;;14.10;99.90;;;;;;1856436;74;21527;-74
2021/09/27 01:51:30;;;;;;;17.10;11.60;;;14.10;99.90;;;;;;1879276;74;21573;-75
2021/09/27 01:53:57;;;;;;;17.48;12.00;;;14.10;99.90;;;;;;1884488;74;21566;-75
2021/09/27 01:56:23;;;;;;;14.13;11.83;;;14.00;99.90;;;;;;1862026;74;21528;-75
2021/09/27 01:58:49;;;;;;;17.02;13.28;;;14.10;99.90;;;;;;1881798;74;21543;-74
2021/09/27 02:01:15;;;;;;;14.45;11.35;;;14.10;99.90;;;;;;1864907;74;21516;-74
2021/09/27 02:03:41;;;;;;;13.53;11.50;;;14.10;99.90;;;;;;1857015;74;21524;-75
2021/09/27 02:06:08;;;;;;;15.60;11.33;;;14.10;99.90;;;;;;1859019;74;21169;-75
2021/09/27 02:08:34;;;;;;;16.07;11.88;;;14.10;99.90;;;;;;1883158;75;21080;-75
2021/09/27 02:11:00;;;;;;;17.92;12.50;;;14.10;99.90;;;;;;1883746;75;21268;-75
2021/09/27 02:13:26;;;;;;;17.90;11.45;;;14.00;99.90;;;;;;1874353;74;21057;-75
2021/09/27 02:15:52;;;;;;;13.00;11.28;;;14.10;99.90;;;;;;1873833;74;21149;-74
2021/09/27 02:18:18;;;;;;;16.93;11.93;;;14.10;99.90;;;;;;1879115;74;21145;-74
2021/09/27 02:20:45;;;;;;;15.93;11.97;;;14.10;99.90;;;;;;1859921;74;21601;-74
2021/09/27 02:23:11;;;;;;;14.98;11.63;;;14.10;99.90;;;;;;1873909;74;21520;-75
2021/09/27 02:25:37;;;;;;;23.75;11.68;;;14.10;99.90;;;;;;1859445;74;21601;-74
2021/09/27 02:28:03;;;;;;;15.05;10.10;;;14.10;99.90;;;;;;1866048;75;21485;-74
2021/09/27 02:30:29;;;;;;;16.85;11.45;;;14.10;99.90;;;;;;1876939;75;21503;-74
2021/09/27 02:32:55;;;;;;;16.27;10.68;;;14.10;99.90;;;;;;1872226;74;21512;-75
2021/09/27 02:35:21;;;;;;;16.77;11.55;;;14.00;99.90;;;;;;1883192;75;21542;-75
2021/09/27 02:37:47;;;;;;;13.25;11.12;;;14.00;99.90;;;;;;1859824;74;21582;-74
2021/09/27 02:40:14;;;;;;;16.02;11.43;;;14.00;99.90;;;;;;1879018;75;21508;-74
2021/09/27 02:42:40;;;;;;;17.80;11.68;;;14.00;99.90;;;;;;1877619;74;21485;-74
2021/09/27 02:45:06;;;;;;;15.95;12.40;;;14.10;99.90;;;;;;1874912;75;21730;-75
2021/09/27 02:47:32;;;;;;;16.80;12.53;;;14.00;99.90;;;;;;1864503;74;21524;-74
2021/09/27 02:49:59;;;;;;;14.83;11.57;;;13.90;99.90;;;;;;1860861;74;21469;-74
2021/09/27 02:52:25;;;;;;;26.25;12.50;;;13.80;99.90;;;;;;1873001;74;21149;-74
2021/09/27 02:54:51;;;;;;;14.65;11.45;;;13.90;99.90;;;;;;1860421;74;21154;-74
2021/09/27 02:57:17;;;;;;;19.92;12.43;;;14.00;99.90;;;;;;1860392;74;21139;-74
2021/09/27 02:59:43;;;;;;;18.10;13.00;;;14.10;99.90;;;;;;1855480;74;21488;-74
2021/09/27 03:02:09;;;;;;;16.10;12.53;;;14.10;99.90;;;;;;1860448;74;21611;-75
2021/09/27 03:04:35;;;;;;;19.15;12.80;;;14.10;99.90;;;;;;1862066;74;21484;-75
2021/09/27 03:07:02;;;;;;;19.12;13.00;;;14.10;99.90;;;;;;1878898;74;21466;-75
2021/09/27 03:09:28;;;;;;;17.37;12.70;;;14.10;99.90;;;;;;1867650;74;21610;-75
2021/09/27 03:11:55;;;;;;;16.48;12.25;;;14.20;99.90;;;;;;1872288;73;21146;-75
2021/09/27 03:14:21;;;;;;;19.25;13.75;;;14.20;99.90;;;;;;1874247;74;21171;-74
2021/09/27 03:16:47;;;;;;;20.37;14.10;;;14.20;99.90;;;;;;1874225;74;21131;-75
2021/09/27 03:19:13;;;;;;;17.52;12.78;;;14.20;99.90;;;;;;1875007;74;21520;-74
2021/09/27 03:21:39;;;;;;;16.70;13.05;;;14.30;99.90;;;;;;1883377;74;21495;-74
2021/09/27 03:24:06;;;;;;;17.77;13.10;;;14.40;99.90;;;;;;1874118;74;21457;-75
2021/09/27 03:26:32;;;;;;;18.60;12.33;;;14.50;99.90;;;;;;1874529;74;21520;-74
2021/09/27 03:28:58;;;;;;;15.75;12.05;;;14.50;99.90;;;;;;1883245;74;21527;-74
2021/09/27 03:31:24;;;;;;;14.15;11.43;;;14.40;99.90;;;;;;1864675;74;21591;-75
2021/09/27 03:33:50;;;;;;;15.30;11.65;;;14.40;99.90;;;;;;1878200;74;21572;-75
2021/09/27 03:36:16;;;;;;;17.37;12.30;;;14.50;99.90;;;;;;1870274;74;21566;-75
2021/09/27 03:38:42;;;;;;;16.65;11.85;;;14.60;99.90;;;;;;1869594;74;21489;-75
2021/09/27 03:41:08;;;;;;;16.23;12.20;;;14.50;99.90;;;;;;1879161;75;21569;-75
2021/09/27 03:43:35;;;;;;;16.77;11.43;;;14.50;99.90;;;;;;1874347;74;21594;-74
2021/09/27 03:46:01;;;;;;;20.55;12.18;;;14.60;99.90;;;;;;1874559;74;21530;-74
2021/09/27 03:48:27;;;;;;;13.95;11.43;;;14.50;99.90;;;;;;1873821;74;21586;-75
2021/09/27 03:50:53;;;;;;;23.02;12.80;;;14.70;99.90;;;;;;1880249;74;21523;-74
2021/09/27 03:53:19;;;;;;;18.90;11.22;;;14.60;99.90;;;;;;1875413;74;21975;-74
2021/09/27 03:55:45;;;;;;;15.50;11.18;;;14.60;99.90;;;;;;1855471;74;21468;-75
2021/09/27 03:58:11;;;;;;;17.10;11.85;;;14.60;99.90;;;;;;1860202;74;21146;-75
2021/09/27 04:00:38;;;;;;;13.80;11.22;;;14.70;99.90;;;;;;1883138;75;21118;-74
2021/09/27 04:03:05;;;;;;;15.75;10.23;;;14.80;99.90;;;;;;1883258;74;21131;-75
2021/09/27 04:05:32;;;;;;;13.18;10.55;;;14.80;99.90;;;;;;1878148;74;21099;-75
2021/09/27 04:07:58;;;;;;;14.45;11.43;;;14.80;99.90;;;;;;1879489;74;21167;-75
2021/09/27 04:10:24;;;;;;;14.55;10.40;;;14.90;99.90;;;;;;1881785;74;21170;-74
2021/09/27 04:12:50;;;;;;;13.93;10.20;;;14.80;99.90;;;;;;1874964;74;21080;-74
2021/09/27 04:15:16;;;;;;;13.03;11.65;;;14.80;99.90;;;;;;1873408;75;21152;-74
2021/09/27 04:17:42;;;;;;;14.07;11.00;;;14.80;99.90;;;;;;1877968;74;21057;-74
2021/09/27 04:20:09;;;;;;;13.72;10.45;;;14.80;99.90;;;;;;1871835;74;21084;-74
2021/09/27 04:22:35;;;;;;;14.25;11.57;;;14.80;99.90;;;;;;1858346;74;21488;-75
2021/09/27 04:25:01;;;;;;;14.80;10.68;;;14.90;99.90;;;;;;1872338;74;21496;-75
2021/09/27 04:27:27;;;;;;;14.05;11.15;;;14.90;99.90;;;;;;1883253;75;21536;-74
2021/09/27 04:29:53;;;;;;;12.50;10.85;;;14.80;99.90;;;;;;1883325;75;21665;-74
2021/09/27 04:32:19;;;;;;;15.38;10.63;;;14.80;99.90;;;;;;1884026;75;21505;-75
2021/09/27 04:34:45;;;;;;;12.63;9.65;;;14.90;99.90;;;;;;1871671;74;21516;-75
2021/09/27 04:37:17;;;;;;;17.30;11.68;;;14.80;99.90;;;;;;1872142;75;21555;-75
2021/09/27 04:39:40;;;;;;;15.70;11.88;;;14.80;99.90;;;;;;1882657;75;21125;-75
2021/09/27 04:42:06;;;;;;;15.35;10.32;;;14.70;99.90;;;;;;1856799;74;21083;-75
2021/09/27 04:44:32;;;;;;;13.58;10.68;;;14.70;99.90;;;;;;1868395;74;21084;-75
2021/09/27 04:46:58;;;;;;;13.03;10.13;;;14.80;99.90;;;;;;1878888;74;21198;-74
2021/09/27 04:49:24;;;;;;;11.38;9.00;;;14.70;99.90;;;;;;1879129;74;21065;-75
2021/09/27 04:51:51;;;;;;;13.40;10.60;;;14.70;99.90;;;;;;1865043;74;21150;-75
2021/09/27 04:54:17;;;;;;;12.90;9.83;;;14.70;99.90;;;;;;1864804;74;21096;-74
2021/09/27 04:56:43;;;;;;;11.50;9.28;;;14.60;99.90;;;;;;1869782;74;21478;-75
2021/09/27 04:59:10;;;;;;;14.60;11.35;;;14.50;99.90;;;;;;1882200;74;21453;-73
2021/09/27 05:01:37;;;;;;;15.70;11.12;;;14.50;99.90;;;;;;1860359;74;21606;-73
2021/09/27 05:04:03;;;;;;;17.30;11.25;;;14.50;99.90;;;;;;1879046;74;21095;-76
2021/09/27 05:06:29;;;;;;;14.23;11.12;;;14.40;99.90;;;;;;1865277;74;21068;-74
2021/09/27 05:08:55;;;;;;;15.10;11.68;;;14.30;99.90;;;;;;1869858;74;21088;-76
2021/09/27 05:11:21;;;;;;;18.87;10.95;;;14.30;99.90;;;;;;1875345;74;21084;-76
2021/09/27 05:13:47;;;;;;;14.10;12.55;;;14.30;99.90;;;;;;1883542;75;21145;-76
2021/09/27 05:16:13;;;;;;;16.62;12.15;;;14.20;99.90;;;;;;1882496;75;21076;-75
2021/09/27 05:18:40;;;;;;;16.85;11.68;;;14.20;99.90;;;;;;1864821;74;21088;-74
2021/09/27 05:21:06;;;;;;;19.98;12.98;;;14.20;99.90;;;;;;1883664;74;21053;-75
2021/09/27 05:23:32;;;;;;;14.80;11.73;;;14.20;99.90;;;;;;1868651;74;21154;-75
2021/09/27 05:25:58;;;;;;;16.95;12.55;;;14.10;99.90;;;;;;1878784;74;21072;-75
2021/09/27 05:28:24;;;;;;;16.25;12.15;;;14.10;99.90;;;;;;1855486;74;21068;-75
2021/09/27 05:30:50;;;;;;;15.95;11.55;;;14.10;99.90;;;;;;1862165;74;21072;-75
2021/09/27 05:33:16;;;;;;;17.92;12.07;;;14.10;99.90;;;;;;1873775;74;21092;-76
2021/09/27 05:35:42;;;;;;;18.35;13.48;;;14.10;99.90;;;;;;1871112;75;21053;-76
2021/09/27 05:38:09;;;;;;;15.68;12.25;;;14.10;99.90;;;;;;1855542;74;21092;-75
2021/09/27 05:40:35;;;;;;;26.23;13.58;;;14.10;99.90;;;;;;1873764;74;21079;-74
2021/09/27 05:43:01;;;;;;;22.85;12.28;;;14.10;99.90;;;;;;1855469;74;21154;-74
2021/09/27 05:45:28;;;;;;;15.72;12.85;;;14.10;99.90;;;;;;1869822;74;21087;-74
2021/09/27 05:47:54;;;;;;;18.67;12.37;;;14.10;99.90;;;;;;1860449;74;21135;-77
2021/09/27 05:50:20;;;;;;;14.95;12.00;;;14.10;99.90;;;;;;1877951;74;21076;-77
2021/09/27 05:52:46;;;;;;;15.65;12.05;;;14.00;99.90;;;;;;1861515;74;21053;-76
2021/09/27 05:55:12;;;;;;;14.30;12.47;;;14.00;99.90;;;;;;1859438;74;21084;-75
2021/09/27 05:57:38;;;;;;;18.37;13.50;;;14.10;99.90;;;;;;1879216;74;21202;-76
2021/09/27 06:00:05;;;;;;;21.12;13.70;;;14.10;99.90;;;;;;1870902;74;21056;-75
2021/09/27 06:02:31;;;;;;;19.10;13.58;;;14.10;99.90;;;;;;1855497;74;21231;-75
2021/09/27 06:04:57;;;;;;;19.40;13.70;;;14.10;99.90;;;;;;1878730;74;21145;-78
2021/09/27 06:07:24;;;;;;;20.20;13.62;;;14.10;99.90;;;;;;1869363;74;21138;-75
2021/09/27 06:09:50;;;;;;;19.07;13.72;;;14.20;99.90;;;;;;1868651;74;21088;-77
2021/09/27 06:12:18;;;;;;;19.50;13.13;;;14.30;99.90;;;;;;1880138;74;21083;-77
2021/09/27 06:14:44;;;;;;;20.62;12.68;;;14.30;99.90;;;;;;1883474;75;21513;-75
2021/09/27 06:17:11;;;;;;;23.45;13.05;;;14.30;99.90;;;;;;1877944;74;21516;-77
2021/09/27 06:19:37;;;;;;;14.78;12.15;;;14.40;99.90;;;;;;1866266;74;21149;-77
2021/09/27 06:22:03;;;;;;;16.90;12.53;;;14.40;99.90;;;;;;1882191;76;21157;-79
2021/09/27 06:24:32;;;;;;;21.65;13.15;;;14.50;99.90;;;;;;1869546;74;21141;-80
2021/09/27 06:26:58;;;;;;;18.27;13.58;;;14.60;99.90;;;;;;1876238;76;21488;-79
2021/09/27 06:29:24;;;;;;;18.87;13.18;;;14.70;99.90;;;;;;1873309;74;21516;-76
2021/09/27 06:31:51;;;;;;;16.35;13.20;;;14.70;99.90;;;;;;1874255;74;21519;-76
2021/09/27 06:34:17;;;;;;;27.55;14.90;;;14.70;99.90;;;;;;1880226;74;21601;-75
2021/09/27 06:36:43;;;;;;;21.87;14.13;;;14.70;99.90;;;;;;1874463;74;21080;-75
2021/09/27 06:39:09;;;;;;;20.48;14.98;;;14.70;99.90;;;;;;1884220;74;21165;-76
2021/09/27 06:41:35;;;;;;;20.82;14.73;;;14.80;99.90;;;;;;1878247;74;21090;-76
2021/09/27 06:44:01;;;;;;;24.27;14.28;;;14.80;99.90;;;;;;1879644;74;21161;-78
2021/09/27 06:46:27;;;;;;;19.02;13.62;;;14.90;99.90;;;;;;1871285;74;21165;-77
2021/09/27 06:48:53;;;;;;;26.12;15.75;;;14.90;99.90;;;;;;1881700;74;21092;-79
2021/09/27 06:51:20;;;;;;;24.05;14.75;;;15.00;99.90;;;;;;1866420;74;21084;-77
2021/09/27 06:53:46;;;;;;;21.00;14.10;;;15.10;99.90;;;;;;1868081;74;21084;-76
2021/09/27 06:56:12;;;;;;;19.85;12.93;;;15.10;99.90;;;;;;1857958;74;21500;-78
2021/09/27 06:58:38;;;;;;;19.62;13.68;;;15.20;99.90;;;;;;1855265;74;21057;-81
2021/09/27 07:01:04;;;;;;;20.55;11.70;;;15.30;99.90;;;;;;1869551;74;21609;-76
2021/09/27 07:03:30;;;;;;;15.00;11.83;;;15.30;99.90;;;;;;1859216;74;21084;-81
2021/09/27 07:05:56;;;;;;;18.07;10.72;;;15.30;99.90;;;;;;1883847;75;21271;-82
2021/09/27 07:08:23;;;;;;;14.03;11.65;;;15.30;99.90;;;;;;1865191;74;21149;-76
2021/09/27 07:10:49;;;;;;;15.32;11.70;;;15.30;99.90;;;;;;1855321;73;21095;-75
2021/09/27 07:13:15;;;;;;;15.75;11.90;;;15.50;99.90;;;;;;1855230;74;21092;-77
2021/09/27 07:15:42;;;;;;;15.05;11.68;;;15.60;99.90;;;;;;1874629;74;21137;-82
2021/09/27 07:18:08;;;;;;;16.23;11.95;;;15.70;99.90;;;;;;1874579;74;21076;-81
2021/09/27 07:20:34;;;;;;;13.90;11.05;;;15.70;99.90;;;;;;1873636;74;21142;-79
2021/09/27 07:23:00;;;;;;;20.10;10.82;;;15.90;99.90;;;;;;1864630;74;21080;-78
2021/09/27 07:25:27;;;;;;;14.33;11.05;;;15.90;99.90;;;;;;1868456;74;21083;-79
2021/09/27 07:27:53;;;;;;;17.90;10.55;;;15.90;99.90;;;;;;1855397;74;21100;-78
2021/09/27 07:30:20;;;;;;;14.65;10.75;;;16.00;99.90;;;;;;1871149;74;21531;-78
2021/09/27 07:32:48;;;;;;;13.13;9.65;;;16.00;99.90;;;;;;1883529;74;21508;-78
2021/09/27 07:35:13;;;;;;;10.85;9.23;;;16.10;99.90;;;;;;1867245;74;21140;-78
2021/09/27 07:37:40;;;;;;;12.93;9.13;;;16.20;99.90;;;;;;1855375;74;21158;-79
2021/09/27 07:40:06;;;;;;;15.70;9.05;;;16.30;99.90;;;;;;1864770;74;21145;-78
2021/09/27 07:42:32;;;;;;;12.35;9.30;;;16.40;99.90;;;;;;1858324;74;21092;-77
2021/09/27 07:44:59;;;;;;;11.85;9.83;;;16.50;99.90;;;;;;1879673;74;21073;-76
2021/09/27 07:47:25;;;;;;;11.63;9.23;;;16.40;99.90;;;;;;1863653;74;21088;-77
2021/09/27 07:49:51;;;;;;;12.47;9.58;;;16.40;99.90;;;;;;1874758;74;21096;-77
2021/09/27 07:52:17;;;;;;;15.83;9.75;;;16.50;99.90;;;;;;1868643;74;21084;-78
2021/09/27 07:54:43;;;;;;;10.10;8.98;;;16.60;99.90;;;;;;1860509;74;21161;-78
2021/09/27 07:57:09;;;;;;;16.40;9.35;;;16.70;99.90;;;;;;1855333;74;21207;-79
2021/09/27 07:59:35;;;;;;;12.73;8.98;;;16.80;99.90;;;;;;1877906;75;21076;-79
2021/09/27 08:02:02;;;;;;;14.13;8.80;;;16.90;99.90;;;;;;1855629;74;21080;-78
2021/09/27 08:04:28;;;;;;;14.45;9.58;;;17.10;99.90;;;;;;1855452;74;21084;-76
2021/09/27 08:06:54;;;;;;;10.13;8.20;;;17.20;99.90;;;;;;1869632;74;21602;-76
2021/09/27 08:09:20;;;;;;;8.35;7.55;;;17.40;99.90;;;;;;1864736;74;21594;-76
2021/09/27 08:11:46;;;;;;;9.00;7.25;;;17.80;99.90;;;;;;1860590;74;21621;-78
2021/09/27 08:14:12;;;;;;;10.93;7.50;;;18.20;99.90;;;;;;1882446;75;21494;-75
2021/09/27 08:16:38;;;;;;;11.35;8.33;;;18.70;99.90;;;;;;1869666;74;21080;-78
2021/09/27 08:19:04;;;;;;;13.43;7.37;;;18.70;99.90;;;;;;1883579;74;21049;-77
2021/09/27 08:21:31;;;;;;;9.38;7.28;;;18.80;99.90;;;;;;1872122;74;21153;-77
2021/09/27 08:23:57;;;;;;;8.13;6.90;;;19.00;99.90;;;;;;1870693;74;21224;-78
2021/09/27 08:26:23;;;;;;;6.78;6.00;;;19.00;99.90;;;;;;1878168;74;21084;-79
2021/09/27 08:28:49;;;;;;;7.65;6.40;;;19.40;99.90;;;;;;1881188;75;21056;-76
2021/09/27 08:31:17;;;;;;;6.30;5.78;;;19.70;99.90;;;;;;1870655;74;21053;-79
2021/09/27 08:33:43;;;;;;;9.03;5.87;;;20.00;99.90;;;;;;1872998;74;21124;-78
2021/09/27 08:36:10;;;;;;;11.70;5.85;;;20.30;99.90;;;;;;1866959;75;21072;-78
2021/09/27 08:38:38;;;;;;;6.10;5.50;;;20.60;99.90;;;;;;1857820;74;21099;-79
2021/09/27 08:41:05;;;;;;;9.83;5.60;;;21.10;99.90;;;;;;1881523;75;21496;-78
2021/09/27 08:43:36;;;;;;;5.90;5.30;;;21.20;99.90;;;;;;1876374;74;21453;-77
2021/09/27 08:46:01;;;;;;;6.75;5.22;;;21.40;99.90;;;;;;1882458;74;21316;-77
2021/09/27 08:48:27;;;;;;;5.58;4.80;;;21.30;99.90;;;;;;1875585;74;21196;-79
2021/09/27 08:50:53;;;;;;;5.62;4.87;;;22.00;99.90;;;;;;1878552;74;21084;-78
2021/09/27 08:53:19;;;;;;;5.67;5.08;;;21.70;99.90;;;;;;1878297;75;21158;-79
2021/09/27 08:55:46;;;;;;;5.87;4.78;;;21.60;99.90;;;;;;1883006;75;21053;-78
2021/09/27 08:58:12;;;;;;;4.60;4.20;;;22.20;99.90;;;;;;1866716;74;21084;-79
2021/09/27 09:00:38;;;;;;;9.13;4.37;;;22.50;99.90;;;;;;1876994;74;21201;-77
2021/09/27 09:03:04;;;;;;;5.15;4.58;;;23.10;99.90;;;;;;1866057;74;21189;-75
2021/09/27 09:05:31;;;;;;;4.40;3.87;;;22.10;99.90;;;;;;1855385;74;21146;-77
2021/09/27 09:07:57;;;;;;;5.00;4.12;;;22.40;99.90;;;;;;1864788;74;21064;-76
2021/09/27 09:10:23;;;;;;;4.42;3.75;;;22.30;99.90;;;;;;1855276;74;21153;-75
2021/09/27 09:12:50;;;;;;;5.00;4.25;;;22.00;99.90;;;;;;1859634;74;21206;-75
2021/09/27 09:15:17;;;;;;;5.90;4.40;;;22.10;99.90;;;;;;1874099;74;21080;-75
2021/09/27 09:17:43;;;;;;;3.30;2.35;;;22.10;99.90;;;;;;1864670;74;21065;-76
2021/09/27 09:20:09;;;;;;;2.45;2.30;;;22.50;99.90;;;;;;1860023;74;21080;-77
2021/09/27 09:22:35;;;;;;;8.48;2.92;;;22.70;99.90;;;;;;1874643;74;21170;-78
2021/09/27 09:25:01;;;;;;;3.70;2.50;;;22.90;99.90;;;;;;1878543;74;21528;-77
2021/09/27 09:27:28;;;;;;;2.15;2.02;;;23.20;99.90;;;;;;1868705;73;21508;-76
2021/09/27 09:29:54;;;;;;;2.42;2.22;;;23.10;99.90;;;;;;1865327;74;21150;-77
2021/09/27 09:32:20;;;;;;;5.00;1.90;;;23.20;99.90;;;;;;1877286;74;21096;-77
2021/09/27 09:34:46;;;;;;;4.50;2.20;;;23.20;99.90;;;;;;1855440;74;21127;-77
2021/09/27 09:37:12;;;;;;;3.22;2.30;;;23.40;99.90;;;;;;1879664;73;21080;-79
2021/09/27 09:39:38;;;;;;;3.33;2.47;;;23.50;99.90;;;;;;1861902;73;21095;-77
2021/09/27 09:42:05;;;;;;;5.08;2.02;;;23.80;99.90;;;;;;1878666;75;21053;-77
2021/09/27 09:44:31;;;;;;;4.45;2.20;;;24.10;99.90;;;;;;1867407;74;21091;-77
2021/09/27 09:46:57;;;;;;;3.05;2.02;;;23.50;99.90;;;;;;1877854;74;21083;-78
2021/09/27 09:49:24;;;;;;;3.50;1.85;;;23.70;99.90;;;;;;1857895;74;21103;-77
2021/09/27 09:51:52;;;;;;;2.95;2.00;;;23.70;99.90;;;;;;1856568;74;21053;-77
2021/09/27 09:54:18;;;;;;;5.25;1.87;;;23.30;99.90;;;;;;1873189;74;21080;-76
2021/09/27 09:56:44;;;;;;;2.30;2.00;;;23.20;99.90;;;;;;1882225;75;21080;-76
2021/09/27 09:59:10;;;;;;;2.80;1.62;;;23.50;99.90;;;;;;1880204;74;21041;-76
2021/09/27 10:01:36;;;;;;;3.15;1.95;;;23.70;99.90;;;;;;1875793;74;21153;-76
2021/09/27 10:04:02;;;;;;;2.40;1.67;;;23.80;99.90;;;;;;1880548;74;21080;-76
2021/09/27 10:06:28;;;;;;;1.77;1.67;;;23.20;99.90;;;;;;1861543;74;21088;-77
2021/09/27 10:08:54;;;;;;;1.90;1.67;;;23.60;99.90;;;;;;1873298;74;21053;-74
2021/09/27 10:11:23;;;;;;;4.03;2.00;;;24.00;99.90;;;;;;1879114;75;21269;-77
2021/09/27 10:13:54;;;;;;;2.98;1.90;;;24.60;99.90;;;;;;1879016;73;21505;-76
2021/09/27 10:16:20;;;;;;;2.55;1.72;;;24.30;99.90;;;;;;1883792;75;21568;-77
2021/09/27 10:18:46;;;;;;;1.82;1.67;;;24.20;99.90;;;;;;1873825;74;21522;-75
2021/09/27 10:21:12;;;;;;;3.05;1.80;;;24.00;99.90;;;;;;1855698;74;21095;-79
2021/09/27 10:23:38;;;;;;;1.90;1.70;;;24.20;99.90;;;;;;1855601;74;21473;-76
2021/09/27 10:26:04;;;;;;;5.22;1.67;;;24.70;99.90;;;;;;1866667;74;21483;-76
2021/09/27 10:28:31;;;;;;;1.50;1.40;;;25.30;99.90;;;;;;1871669;74;21500;-78
2021/09/27 10:30:57;;;;;;;2.12;1.80;;;25.60;99.90;;;;;;1875941;75;21480;-78
2021/09/27 10:33:23;;;;;;;1.87;1.57;;;26.00;99.90;;;;;;1874019;74;21520;-78
2021/09/27 10:35:49;;;;;;;5.50;1.30;;;25.60;99.90;;;;;;1876094;74;21162;-77
2021/09/27 10:38:15;;;;;;;2.00;1.35;;;25.50;99.90;;;;;;1865300;74;21143;-78
2021/09/27 10:40:41;;;;;;;2.37;1.40;;;25.60;99.90;;;;;;1874085;74;21131;-75
2021/09/27 10:43:07;;;;;;;2.50;1.57;;;25.10;99.90;;;;;;1874783;75;21084;-75
2021/09/27 10:45:33;;;;;;;1.52;1.05;;;24.40;99.90;;;;;;1869431;74;21186;-77
2021/09/27 10:48:00;;;;;;;4.42;1.17;;;24.10;99.90;;;;;;1860257;74;21154;-75
2021/09/27 10:50:26;;;;;;;2.80;1.90;;;24.30;99.90;;;;;;1873960;74;21214;-75
2021/09/27 10:52:52;;;;;;;4.05;1.50;;;25.00;99.90;;;;;;1865252;74;21084;-75
2021/09/27 10:55:18;;;;;;;2.37;1.67;;;25.60;99.90;;;;;;1874488;74;21158;-76
2021/09/27 10:57:44;;;;;;;1.90;1.32;;;25.30;99.90;;;;;;1874694;74;21554;-76
2021/09/27 11:00:10;;;;;;;3.20;1.50;;;25.20;99.90;;;;;;1859710;74;21532;-77
2021/09/27 11:02:39;;;;;;;1.60;1.35;;;25.20;99.90;;;;;;1837526;76;21446;-74
2021/09/27 11:05:06;;;;;;;1.87;1.30;;;25.10;99.90;;;;;;1876594;74;21086;-74
2021/09/27 11:07:32;;;;;;;2.45;1.50;;;25.20;99.90;;;;;;1845189;76;21098;-75
2021/09/27 11:09:58;;;;;;;2.08;1.42;;;25.00;99.90;;;;;;1879774;75;21096;-76
2021/09/27 11:12:24;;;;;;;1.72;1.35;;;25.20;99.90;;;;;;1845180;75;21116;-75
2021/09/27 11:14:52;;;;;;;1.87;1.25;;;26.20;99.90;;;;;;1845242;76;21096;-75
2021/09/27 11:17:18;;;;;;;2.05;1.57;;;26.70;99.90;;;;;;1844143;75;21158;-75
2021/09/27 11:19:44;;;;;;;4.35;1.45;;;27.20;99.90;;;;;;1850274;75;21154;-74
2021/09/27 11:22:10;;;;;;;1.05;1.00;;;27.30;99.90;;;;;;1879173;75;21100;-75
2021/09/27 11:24:36;;;;;;;2.77;1.20;;;27.20;99.90;;;;;;1842731;76;21079;-74
2021/09/27 11:27:02;;;;;;;2.00;1.22;;;27.00;99.90;;;;;;1863604;74;21170;-75
2021/09/27 11:29:29;;;;;;;2.37;1.30;;;27.30;99.90;;;;;;1880727;74;21235;-75
2021/09/27 11:31:55;;;;;;;1.60;1.15;;;27.60;99.90;;;;;;1883076;74;21146;-76
2021/09/27 11:34:21;;;;;;;1.00;1.00;;;26.90;99.90;;;;;;1882794;74;21088;-75
2021/09/27 11:36:47;;;;;;;0.85;0.85;;;26.90;99.90;;;;;;1883622;74;21092;-76
2021/09/27 11:39:15;;;;;;;1.45;1.32;;;26.90;99.90;;;;;;1882382;74;21088;-75
2021/09/27 11:41:41;;;;;;;1.75;1.25;;;26.80;99.90;;;;;;1883836;74;21516;-74
2021/09/27 11:44:07;;;;;;;1.52;1.17;;;26.70;99.90;;;;;;1882345;74;21593;-74
2021/09/27 11:46:34;;;;;;;1.17;1.07;;;26.70;99.90;;;;;;1883332;74;21492;-74
2021/09/27 11:49:03;;;;;;;1.10;1.00;;;26.20;99.90;;;;;;1881806;74;21206;-74
2021/09/27 11:51:29;;;;;;;1.75;1.15;;;25.40;99.90;;;;;;1883286;74;21076;-75
2021/09/27 11:53:59;;;;;;;2.17;1.50;;;24.80;99.90;;;;;;1883278;74;21241;-75
2021/09/27 11:56:23;;;;;;;3.30;1.10;;;24.60;99.90;;;;;;1882832;74;21120;-76
2021/09/27 11:58:49;;;;;;;1.35;0.90;;;24.70;99.90;;;;;;1882635;74;21084;-74
2021/09/27 12:01:15;;;;;;;3.35;1.32;;;25.00;99.90;;;;;;1882894;75;21080;-76
2021/09/27 12:03:41;;;;;;;2.90;1.47;;;25.00;99.90;;;;;;1882452;74;21084;-75
2021/09/27 12:06:09;;;;;;;1.15;1.00;;;25.10;99.90;;;;;;1883449;74;21146;-75
2021/09/27 12:08:35;;;;;;;1.52;1.32;;;25.60;99.90;;;;;;1883022;74;21499;-75
2021/09/27 12:11:01;;;;;;;1.20;1.10;;;25.70;99.90;;;;;;1882146;74;21582;-76
2021/09/27 12:13:27;;;;;;;0.80;0.80;;;26.10;99.90;;;;;;1882420;74;21460;-75
2021/09/27 12:15:53;;;;;;;4.78;1.07;;;26.30;99.90;;;;;;1882692;74;21521;-75
2021/09/27 12:18:19;;;;;;;1.02;1.00;;;26.20;99.90;;;;;;1882498;74;21154;-74
2021/09/27 12:20:46;;;;;;;1.07;1.00;;;25.60;99.90;;;;;;1882708;74;21112;-74
2021/09/27 12:23:12;;;;;;;0.90;0.90;;;25.90;99.90;;;;;;1883032;74;21146;-76
2021/09/27 12:25:38;;;;;;;2.15;1.00;;;26.20;99.90;;;;;;1882180;74;21158;-75
2021/09/27 12:28:05;;;;;;;1.20;1.10;;;26.00;99.90;;;;;;1873104;75;21092;-75
2021/09/27 12:30:32;;;;;;;2.02;1.00;;;26.20;99.90;;;;;;1882160;74;21667;-75